createdAt,value
2022-10-21T02:16:02.394Z,21.30
2022-10-21T02:17:34.178Z,22.58
2022-10-21T02:19:10.775Z,18.00
2022-10-21T02:20:42.578Z,12.95
2022-10-21T02:22:16.091Z,11.13
2022-10-21T02:24:05.728Z,9.90
2022-10-21T02:25:38.794Z,10.65
2022-10-21T02:27:10.506Z,18.60
2022-10-21T02:28:42.217Z,10.63
2022-10-21T02:30:13.981Z,7.45
2022-10-21T02:32:00.811Z,9.10
2022-10-21T02:33:52.115Z,8.48
2022-10-21T02:35:35.160Z,11.35
2022-10-21T02:37:19.447Z,9.43
2022-10-21T02:38:54.266Z,8.52
2022-10-21T02:40:36.727Z,6.50
2022-10-21T02:42:10.480Z,8.40
2022-10-21T02:44:01.826Z,6.97
2022-10-21T02:45:33.760Z,6.80
2022-10-21T02:47:05.552Z,7.93
2022-10-21T02:48:38.294Z,6.78
2022-10-21T02:50:10.159Z,7.10
2022-10-21T02:51:41.906Z,5.60
2022-10-21T02:53:13.678Z,8.15
2022-10-21T02:54:45.367Z,5.20
2022-10-21T02:56:17.106Z,6.35
2022-10-21T02:57:48.878Z,7.30
2022-10-21T02:59:20.612Z,5.22
2022-10-21T03:00:52.421Z,6.32
2022-10-21T03:02:24.234Z,5.82
2022-10-21T03:03:55.971Z,4.60
2022-10-21T03:05:27.824Z,5.25
2022-10-21T03:06:59.615Z,5.55
2022-10-21T03:08:31.405Z,5.03
2022-10-21T03:10:03.349Z,5.95
2022-10-21T03:11:35.032Z,5.65
2022-10-21T03:13:06.751Z,7.00
2022-10-21T03:14:38.550Z,4.60
2022-10-21T03:16:10.324Z,5.15
2022-10-21T03:17:42.297Z,4.15
2022-10-21T03:19:14.196Z,7.18
2022-10-21T03:20:49.114Z,4.05
2022-10-21T03:22:20.822Z,3.45
2022-10-21T03:23:52.536Z,3.95
2022-10-21T03:25:24.261Z,3.50
2022-10-21T03:26:56.483Z,3.75
2022-10-21T03:28:28.222Z,4.38
2022-10-21T03:29:59.955Z,3.70
2022-10-21T03:31:31.671Z,4.88
2022-10-21T03:33:03.447Z,3.45
2022-10-21T03:34:35.145Z,2.85
2022-10-21T03:36:07.187Z,2.92
2022-10-21T03:37:38.882Z,4.65
2022-10-21T03:39:11.453Z,3.38
2022-10-21T03:40:43.132Z,3.55
2022-10-21T03:42:14.821Z,3.83
2022-10-21T03:43:46.544Z,3.30
2022-10-21T03:45:18.319Z,4.55
2022-10-21T03:46:50.004Z,3.75
2022-10-21T03:48:21.947Z,3.75
2022-10-21T03:49:54.943Z,3.45
2022-10-21T03:51:26.679Z,3.95
2022-10-21T03:52:59.809Z,2.45
2022-10-21T03:54:31.488Z,3.53
2022-10-21T03:56:03.153Z,3.13
2022-10-21T03:57:34.869Z,5.22
2022-10-21T03:59:06.580Z,3.60
2022-10-21T04:00:38.332Z,2.90
2022-10-21T04:02:10.075Z,6.28
2022-10-21T04:03:41.815Z,3.95
2022-10-21T04:05:13.586Z,3.80
2022-10-21T04:06:45.305Z,3.58
2022-10-21T04:08:16.977Z,2.92
2022-10-21T04:09:48.703Z,5.10
2022-10-21T04:11:20.433Z,3.85
2022-10-21T04:12:52.145Z,3.33
2022-10-21T04:14:23.848Z,3.65
2022-10-21T04:15:59.620Z,3.42
2022-10-21T04:17:31.282Z,3.17
2022-10-21T04:19:03.056Z,3.33
2022-10-21T04:20:34.775Z,3.65
2022-10-21T04:22:06.502Z,3.80
2022-10-21T04:23:38.311Z,3.42
2022-10-21T04:25:10.183Z,3.70
2022-10-21T04:26:45.656Z,3.33
2022-10-21T04:28:17.362Z,3.33
2022-10-21T04:29:49.061Z,3.28
2022-10-21T04:31:20.806Z,3.42
2022-10-21T04:32:52.557Z,3.55
2022-10-21T04:34:24.302Z,4.13
2022-10-21T04:35:56.736Z,3.15
2022-10-21T04:37:28.407Z,3.28
2022-10-21T04:39:00.120Z,3.72
2022-10-21T04:40:31.789Z,4.30
2022-10-21T04:42:03.689Z,3.42
2022-10-21T04:43:36.853Z,3.45
2022-10-21T04:45:08.961Z,3.17
2022-10-21T04:46:40.689Z,4.20
2022-10-21T04:48:13.727Z,4.18
2022-10-21T04:49:45.450Z,3.20
2022-10-21T04:51:17.252Z,3.92
2022-10-21T04:52:48.968Z,3.38
2022-10-21T04:54:20.733Z,3.67
2022-10-21T04:55:53.167Z,3.78
2022-10-21T04:57:24.926Z,3.58
2022-10-21T04:58:56.660Z,4.07
2022-10-21T05:00:28.385Z,4.13
2022-10-21T05:03:36.790Z,3.40
2022-10-21T05:05:08.986Z,3.60
2022-10-21T05:06:40.687Z,3.25
2022-10-21T05:08:12.448Z,3.53
2022-10-21T05:09:44.166Z,4.13
2022-10-21T05:11:15.954Z,3.50
2022-10-21T05:12:47.653Z,3.72
2022-10-21T05:14:22.538Z,4.00
2022-10-21T05:15:58.494Z,4.63
2022-10-21T05:17:30.256Z,4.57
2022-10-21T05:19:01.953Z,4.07
2022-10-21T05:20:33.654Z,4.25
2022-10-21T05:22:05.319Z,3.08
2022-10-21T05:23:37.043Z,3.55
2022-10-21T05:25:08.959Z,4.15
2022-10-21T05:26:40.728Z,3.92
2022-10-21T05:28:12.409Z,4.28
2022-10-21T05:29:44.118Z,3.47
2022-10-21T05:31:15.845Z,4.25
2022-10-21T05:32:47.675Z,3.72
2022-10-21T05:34:19.530Z,4.00
2022-10-21T05:36:06.897Z,3.88
2022-10-21T05:37:38.829Z,3.78
2022-10-21T05:39:11.643Z,4.38
2022-10-21T05:40:43.398Z,4.57
2022-10-21T05:42:15.174Z,2.80
2022-10-21T05:43:46.969Z,3.50
2022-10-21T05:45:18.651Z,3.60
2022-10-21T05:46:50.347Z,7.85
2022-10-21T05:48:22.127Z,3.85
2022-10-21T05:49:53.858Z,4.65
2022-10-21T05:51:26.824Z,4.00
2022-10-21T05:52:58.962Z,9.48
2022-10-21T05:54:30.643Z,14.00
2022-10-21T05:56:04.200Z,11.57
2022-10-21T05:57:36.186Z,13.40
2022-10-21T05:59:10.127Z,12.05
2022-10-21T06:00:42.237Z,11.82
2022-10-21T06:02:13.988Z,12.27
2022-10-21T06:03:45.706Z,11.98
2022-10-21T06:05:17.466Z,11.70
2022-10-21T06:06:49.182Z,12.73
2022-10-21T06:08:20.927Z,11.25
2022-10-21T06:09:54.744Z,13.43
2022-10-21T06:11:26.956Z,11.68
2022-10-21T06:12:58.639Z,9.45
2022-10-21T06:14:30.387Z,16.13
2022-10-21T06:16:02.362Z,19.67
2022-10-21T06:17:34.136Z,33.90
2022-10-21T06:19:05.880Z,24.25
2022-10-21T06:20:37.570Z,21.35
2022-10-21T06:22:09.366Z,24.27
2022-10-21T06:23:41.155Z,29.42
2022-10-21T06:25:13.053Z,22.85
2022-10-21T06:26:44.772Z,28.42
2022-10-21T06:28:16.479Z,27.00
2022-10-21T06:29:48.216Z,22.95
2022-10-21T06:31:21.788Z,24.85
2022-10-21T06:32:53.521Z,22.58
2022-10-21T06:34:25.316Z,23.30
2022-10-21T06:35:57.235Z,22.48
2022-10-21T06:37:28.940Z,23.27
2022-10-21T06:39:00.637Z,21.67
2022-10-21T06:40:32.322Z,20.83
2022-10-21T06:42:03.988Z,26.20
2022-10-21T06:43:44.956Z,27.83
2022-10-21T06:45:17.818Z,22.17
2022-10-21T06:46:49.559Z,21.95
2022-10-21T06:48:21.239Z,22.00
2022-10-21T06:49:53.031Z,21.85
2022-10-21T06:51:24.977Z,24.73
2022-10-21T06:52:56.712Z,23.63
2022-10-21T06:54:28.521Z,25.40
2022-10-21T06:56:01.847Z,27.30
2022-10-21T06:57:33.651Z,28.40
2022-10-21T06:59:05.351Z,35.45
2022-10-21T07:00:37.520Z,45.85
2022-10-21T07:02:09.631Z,38.50
2022-10-21T07:03:41.319Z,34.83
2022-10-21T07:05:13.115Z,29.83
2022-10-21T07:06:46.357Z,35.50
2022-10-21T07:08:19.780Z,36.15
2022-10-21T07:09:57.789Z,34.90
2022-10-21T07:11:29.464Z,32.38
2022-10-21T07:13:01.168Z,36.88
2022-10-21T07:14:32.964Z,37.58
2022-10-21T07:16:24.625Z,35.83
2022-10-21T07:18:00.939Z,28.30
2022-10-21T07:19:32.945Z,27.08
2022-10-21T07:21:09.066Z,28.88
2022-10-21T07:22:40.780Z,28.95
2022-10-21T07:24:12.581Z,29.08
2022-10-21T07:25:44.447Z,26.48
2022-10-21T07:27:16.274Z,25.05
2022-10-21T07:28:48.109Z,29.63
2022-10-21T07:30:19.852Z,26.60
2022-10-21T07:31:51.539Z,27.70
2022-10-21T07:33:23.243Z,24.80
2022-10-21T07:34:54.926Z,25.00
2022-10-21T07:36:28.162Z,27.48
2022-10-21T07:37:59.883Z,24.15
2022-10-21T07:39:31.575Z,25.77
2022-10-21T07:41:03.380Z,23.27
2022-10-21T07:42:35.118Z,26.35
2022-10-21T07:44:07.037Z,25.98
2022-10-21T07:45:41.067Z,27.42
2022-10-21T07:47:12.863Z,22.27
2022-10-21T07:48:44.558Z,29.38
2022-10-21T07:50:16.430Z,25.52
2022-10-21T07:51:50.451Z,33.22
2022-10-21T07:53:25.906Z,29.17
2022-10-21T07:54:57.576Z,28.20
2022-10-21T07:56:34.733Z,39.65
2022-10-21T07:58:06.446Z,34.15
2022-10-21T07:59:38.097Z,31.45
2022-10-21T08:01:10.298Z,29.83
2022-10-21T08:02:42.153Z,27.15
2022-10-21T08:04:16.921Z,35.28
2022-10-21T08:05:48.596Z,38.88
2022-10-21T08:07:20.331Z,29.83
2022-10-21T08:08:52.156Z,30.63
2022-10-21T08:10:23.902Z,31.77
2022-10-21T08:11:55.723Z,37.70
2022-10-21T08:13:27.448Z,36.92
2022-10-21T08:14:59.224Z,34.00
2022-10-21T08:16:30.932Z,33.33
2022-10-21T08:18:02.641Z,37.33
2022-10-21T08:19:34.437Z,35.75
2022-10-21T08:21:06.290Z,33.25
2022-10-21T08:22:38.123Z,37.38
2022-10-21T08:24:09.942Z,33.75
2022-10-21T08:25:52.615Z,32.08
2022-10-21T08:27:24.323Z,33.85
2022-10-21T08:28:56.086Z,36.67
2022-10-21T08:30:31.876Z,29.90
2022-10-21T08:32:04.226Z,32.85
2022-10-21T08:33:36.049Z,27.92
2022-10-21T08:35:08.103Z,30.35
2022-10-21T08:36:39.951Z,39.78
2022-10-21T08:38:11.707Z,33.22
2022-10-21T08:39:43.401Z,27.13
2022-10-21T08:44:35.175Z,28.42
2022-10-21T08:46:13.609Z,27.30
2022-10-21T08:47:50.951Z,23.42
2022-10-21T08:49:47.248Z,23.75
2022-10-21T08:51:40.144Z,30.13
2022-10-21T08:53:39.810Z,22.52
2022-10-21T08:55:25.547Z,24.05
2022-10-21T08:57:00.476Z,30.70
2022-10-21T08:58:32.280Z,26.83
2022-10-21T09:00:34.985Z,27.13
2022-10-21T09:02:12.568Z,22.65
2022-10-21T09:03:46.963Z,27.23
2022-10-21T09:05:33.001Z,24.10
2022-10-21T09:07:25.055Z,25.13
2022-10-21T09:09:15.068Z,22.55
2022-10-21T09:10:52.526Z,24.48
2022-10-21T09:12:33.876Z,22.98
2022-10-21T09:16:11.055Z,23.98
2022-10-21T09:18:13.596Z,22.38
2022-10-21T09:20:12.007Z,24.10
2022-10-21T09:22:05.839Z,21.48
2022-10-21T09:24:05.827Z,21.38
2022-10-21T09:25:48.240Z,25.50
2022-10-21T09:27:26.951Z,22.50
2022-10-21T09:29:30.578Z,23.10
2022-10-21T09:31:03.105Z,21.85
2022-10-21T09:32:37.840Z,18.20
2022-10-21T09:34:18.105Z,23.23
2022-10-21T09:35:52.694Z,20.98
2022-10-21T09:37:35.415Z,24.02
2022-10-21T09:39:30.246Z,21.50
2022-10-21T09:41:03.654Z,25.65
2022-10-21T09:42:46.916Z,19.13
2022-10-21T09:44:22.578Z,21.65
2022-10-21T09:45:54.368Z,21.83
2022-10-21T09:47:26.089Z,18.70
2022-10-21T09:49:36.312Z,20.08
2022-10-21T09:50:58.388Z,19.95
2022-10-21T09:52:31.421Z,17.95
2022-10-21T09:54:14.544Z,17.50
2022-10-21T09:55:47.385Z,22.13
2022-10-21T09:57:34.157Z,20.35
2022-10-21T09:59:11.606Z,20.55
2022-10-21T10:00:47.937Z,15.30
2022-10-21T10:02:27.429Z,18.42
2022-10-21T10:03:59.287Z,19.50
2022-10-21T10:05:36.573Z,24.80
2022-10-21T10:07:41.735Z,16.42
2022-10-21T10:09:32.807Z,20.58
2022-10-21T10:11:10.403Z,16.67
2022-10-21T10:12:42.165Z,19.73
2022-10-21T10:14:38.387Z,21.55
2022-10-21T10:16:27.813Z,19.85
2022-10-21T10:17:59.874Z,17.70
2022-10-21T10:19:32.610Z,17.75
2022-10-21T10:21:10.264Z,18.02
2022-10-21T10:22:45.283Z,19.83
2022-10-21T10:24:18.773Z,16.35
2022-10-21T10:25:51.533Z,17.85
2022-10-21T10:27:23.474Z,17.85
2022-10-21T10:29:01.514Z,18.17
2022-10-21T10:30:42.305Z,15.65
2022-10-21T10:32:14.881Z,21.65
2022-10-21T10:33:49.909Z,17.17
2022-10-21T10:35:24.777Z,18.50
2022-10-21T10:37:07.578Z,20.33
2022-10-21T10:38:41.816Z,14.93
2022-10-21T10:40:28.190Z,19.73
2022-10-21T10:41:59.905Z,16.70
2022-10-21T10:43:32.098Z,20.42
2022-10-21T10:45:06.033Z,19.45
2022-10-21T10:46:38.119Z,21.00
2022-10-21T10:48:16.327Z,16.33
2022-10-21T10:49:48.103Z,17.65
2022-10-21T10:51:24.203Z,19.38
2022-10-21T10:53:21.438Z,15.70
2022-10-21T10:55:11.329Z,20.65
2022-10-21T10:58:26.852Z,18.42
2022-10-21T11:00:04.569Z,22.27
2022-10-21T11:01:39.801Z,18.08
2022-10-21T11:03:14.765Z,18.85
2022-10-21T11:04:57.829Z,20.15
2022-10-21T11:06:35.866Z,28.15
2022-10-21T11:08:21.396Z,28.52
2022-10-21T11:09:53.928Z,38.13
2022-10-21T11:11:36.551Z,49.97
2022-10-21T11:13:18.456Z,56.97
2022-10-21T11:14:51.985Z,33.10
2022-10-21T11:16:59.417Z,27.48
2022-10-21T11:18:57.677Z,22.08
2022-10-21T11:20:44.252Z,19.70
2022-10-21T11:22:45.618Z,16.98
2022-10-21T11:24:27.055Z,17.13
2022-10-21T11:26:05.334Z,11.18
2022-10-21T11:27:40.738Z,12.68
2022-10-21T11:29:35.961Z,11.25
2022-10-21T11:31:08.007Z,7.43
2022-10-21T11:32:42.606Z,7.72
2022-10-21T11:34:31.434Z,26.77
2022-10-21T11:36:08.460Z,39.83
2022-10-21T11:38:00.256Z,35.90
2022-10-21T11:39:44.338Z,23.08
2022-10-21T11:41:31.271Z,51.70
2022-10-21T11:43:31.097Z,18.77
2022-10-21T11:45:25.000Z,13.35
2022-10-21T11:47:09.001Z,11.68
2022-10-21T11:49:02.654Z,8.77
2022-10-21T11:50:44.638Z,7.93
2022-10-21T11:52:19.832Z,7.93
2022-10-21T11:54:06.426Z,14.82
2022-10-21T11:55:53.748Z,15.85
2022-10-21T11:57:36.718Z,13.57
2022-10-21T11:59:20.130Z,12.75
2022-10-21T12:01:03.926Z,17.30
2022-10-21T12:02:43.663Z,12.27
2022-10-21T12:06:02.036Z,7.63
2022-10-21T12:07:49.259Z,7.20
2022-10-21T12:09:25.749Z,11.07
2022-10-21T12:11:09.482Z,18.52
2022-10-21T12:12:46.256Z,17.17
2022-10-21T12:14:31.600Z,13.07
2022-10-21T12:16:13.556Z,16.25
2022-10-21T12:17:45.550Z,18.75
2022-10-21T12:19:17.243Z,18.70
2022-10-21T12:20:52.935Z,18.25
2022-10-21T12:22:25.650Z,11.90
2022-10-21T12:24:01.455Z,12.75
2022-10-21T12:25:37.592Z,19.58
2022-10-21T12:27:27.508Z,25.23
2022-10-21T12:30:43.682Z,15.73
2022-10-21T12:32:28.961Z,21.13
2022-10-21T12:34:00.668Z,18.27
2022-10-21T12:35:52.951Z,31.70
2022-10-21T12:37:43.910Z,22.30
2022-10-21T12:39:34.016Z,33.85
2022-10-21T12:41:23.914Z,31.33
2022-10-21T12:44:52.257Z,27.67
2022-10-21T12:46:40.029Z,35.05
2022-10-21T12:48:32.988Z,33.72
2022-10-21T12:50:28.810Z,30.55
2022-10-21T12:52:13.502Z,26.08
2022-10-21T12:55:28.284Z,30.58
2022-10-21T12:57:04.790Z,20.25
2022-10-21T12:58:45.827Z,25.17
2022-10-21T13:02:05.205Z,23.00
2022-10-21T13:03:45.999Z,24.77
2022-10-21T13:05:38.768Z,20.98
2022-10-21T13:07:19.534Z,23.48
2022-10-21T13:08:54.850Z,23.88
2022-10-21T13:10:26.973Z,22.67
2022-10-21T13:12:10.576Z,25.05
2022-10-21T13:13:45.810Z,23.48
2022-10-21T13:15:20.288Z,19.10
2022-10-21T13:16:52.081Z,19.42
2022-10-21T13:19:18.045Z,19.95
2022-10-21T13:20:56.867Z,17.98
2022-10-21T13:22:38.704Z,23.38
2022-10-21T13:24:13.612Z,17.65
2022-10-21T13:25:45.340Z,19.67
2022-10-21T13:27:24.652Z,19.83
2022-10-21T13:29:13.984Z,21.95
2022-10-21T13:30:48.030Z,19.15
2022-10-21T13:32:22.834Z,17.60
2022-10-21T13:33:55.310Z,16.15
2022-10-21T13:35:36.797Z,14.45
2022-10-21T13:37:31.394Z,16.92
2022-10-21T13:39:06.560Z,21.58
2022-10-21T13:40:44.807Z,12.98
2022-10-21T13:42:18.123Z,18.38
2022-10-21T13:43:58.241Z,19.25
2022-10-21T13:45:37.632Z,13.20
2022-10-21T13:47:28.643Z,19.38
2022-10-21T13:49:00.827Z,19.15
2022-10-21T13:50:35.867Z,14.10
2022-10-21T13:52:10.583Z,14.50
2022-10-21T13:53:45.606Z,14.05
2022-10-21T13:55:22.137Z,13.90
2022-10-21T13:56:53.806Z,13.35
2022-10-21T13:58:25.758Z,14.43
2022-10-21T14:00:09.872Z,10.95
2022-10-21T14:01:46.581Z,12.98
2022-10-21T14:03:19.570Z,14.75
2022-10-21T14:04:51.303Z,11.98
2022-10-21T14:06:36.645Z,12.15
2022-10-21T14:08:19.287Z,11.20
2022-10-21T14:09:52.498Z,12.48
2022-10-21T14:11:32.203Z,12.80
2022-10-21T14:13:06.627Z,9.65
2022-10-21T14:14:38.917Z,11.95
2022-10-21T14:16:10.650Z,9.38
2022-10-21T14:17:43.563Z,8.13
2022-10-21T14:19:20.090Z,10.68
2022-10-21T14:20:53.398Z,12.70
2022-10-21T14:22:25.571Z,10.20
2022-10-21T14:23:57.826Z,10.77
2022-10-21T14:25:30.208Z,9.77
2022-10-21T14:27:02.137Z,8.40
2022-10-21T14:28:34.448Z,11.98
2022-10-21T14:30:06.912Z,7.45
2022-10-21T14:31:40.832Z,8.75
2022-10-21T14:33:18.075Z,9.18
2022-10-21T14:35:07.113Z,9.10
2022-10-21T14:37:01.601Z,10.80
2022-10-21T14:39:00.405Z,8.43
2022-10-21T14:40:39.715Z,9.88
2022-10-21T14:42:21.869Z,7.10
2022-10-21T14:43:53.743Z,9.85
2022-10-21T14:45:33.944Z,7.80
2022-10-21T14:47:05.743Z,7.50
2022-10-21T14:48:45.832Z,7.85
2022-10-21T14:50:22.439Z,8.45
2022-10-21T14:52:01.005Z,7.80
2022-10-21T14:53:35.120Z,6.03
2022-10-21T14:55:08.351Z,6.95
2022-10-21T14:56:41.207Z,6.53
2022-10-21T14:58:22.827Z,13.18
2022-10-21T14:59:55.265Z,12.98
2022-10-21T15:01:27.084Z,8.88
2022-10-21T15:02:59.252Z,14.10
2022-10-21T15:04:54.244Z,11.70
2022-10-21T15:06:30.140Z,12.40
2022-10-21T15:08:19.878Z,7.70
2022-10-21T15:10:05.266Z,8.95
2022-10-21T15:11:39.463Z,10.68
2022-10-21T15:13:18.716Z,10.95
2022-10-21T15:14:50.397Z,13.70
2022-10-21T15:16:22.169Z,8.52
2022-10-21T15:18:02.889Z,8.30
2022-10-21T15:19:48.273Z,11.35
